Weather observations for the past three days for
Taunton, Taunton Municipal Airport
Imperial (Metric)
Date Time (edt) Wind (mph) Vis. (mi.) Weather Sky Cond. Temperature (ºF) Relative Humidity Wind Chill (°F) Heat Index (°F) Pressure Precipitation (in)
Air Dwpt 6 hour altimeter (in) sea level (mb) 1 hr 3 hr 6 hr
Max. Min.
05 23:52 SW 9 G 26 10.00 Fair CLR 57.9 50 75% 29.9 1012.6
05 22:52 SW 12 G 26 10.00 Fair CLR 57.9 48.9 72% 29.89 1012.3
05 21:52 S 13 G 26 10.00 Fair CLR 57.9 48 70% 29.89 1012.3
05 20:52 S 10 G 21 10.00 Fair CLR 57.9 48 70% 29.88 1011.9
05 19:52 SW 15 G 29 10.00 Fair CLR 59 48 72 59 67% 29.85 1010.7
05 18:52 SW 15 G 31 10.00 Fair CLR 60.1 48 65% 29.83 1010.2
05 17:52 SW 13 G 24 10.00 Fair CLR 64 48.9 58% 29.82 1009.8
05 16:52 S 15 G 25 10.00 Fair CLR 66 50 56% 29.81 1009.5
05 15:52 SW 15 G 30 10.00 Fair CLR 66 48.9 54% 29.82 1009.8
05 14:52 S 16 G 25 10.00 Fair CLR 70 50 49% 29.82 1009.9
05 13:52 S 16 G 30 10.00 Fair CLR 70 48.9 72 57.9 47% 29.84 1010.5
05 12:52 S 16 G 26 10.00 Fair CLR 68 48.9 51% 29.86 1011.0
05 11:52 S 12 G 22 10.00 Fair CLR 71.1 51.1 49% 29.86 1011.0
05 10:52 SW 9 G 18 10.00 A Few Clouds FEW100 71.1 51.1 49% 29.86 1011.1
05 09:52 SW 12 G 22 10.00 Fair CLR 64 50 60% 29.87 1011.5
05 08:52 S 9 10.00 Fair CLR 62.1 50 65% 29.88 1011.7
05 07:52 S 8 10.00 Fair CLR 57.9 48.9 57.9 46.9 72% 29.87 1011.5
05 06:52 Vrbl 6 10.00 Fair CLR 53.1 48 83% 29.87 1011.4
05 05:52 SE 3 10.00 A Few Clouds FEW095 50 46.9 89% 29.86 1011.1
05 04:52 Calm 10.00 Fair CLR 48.9 46 90% 29.87 1011.5
05 03:52 Calm 10.00 Fair CLR 48.9 46 90% 29.87 1011.5
05 02:52 SW 5 10.00 Fair CLR 51.1 46 83% 29.87 1011.6
05 01:52 SW 5 10.00 Fair CLR 51.1 46 55.9 51.1 83% 29.88 1011.7
05 00:52 SW 7 10.00 Fair CLR 52 46 80% 29.89 1012.0
04 23:52 S 7 10.00 Fair CLR 52 45 77% 29.88 1012.0
04 22:52 SW 8 10.00 Fair CLR 52 45 77% 29.89 1012.2
04 21:52 SW 9 10.00 Fair CLR 52 44.1 75% 29.89 1012.2
04 20:52 SW 13 G 26 10.00 Fair CLR 54 44.1 69% 29.87 1011.4
04 19:52 SW 14 G 25 10.00 Fair CLR 55.9 42.1 68 55.9 60% 29.84 1010.4
04 18:52 SW 17 G 30 10.00 Fair CLR 59 39 48% 29.82 1009.8
04 17:52 S 18 G 31 10.00 Fair CLR 63 37.9 40% 29.81 1009.4
04 16:52 SW 14 G 30 10.00 Fair CLR 64.9 37.9 37% 29.8 1009.0
04 15:52 SW 15 G 32 10.00 Fair CLR 66 36 33% 29.8 1009.0
04 14:52 SW 16 G 33 10.00 Fair CLR 66.9 37 33% 29.8 1009.0
04 13:52 S 16 G 31 10.00 Fair CLR 66.9 34 69.1 54 30% 29.8 1009.1
04 12:52 W 13 G 30 10.00 Fair CLR 68 30 24% 29.81 1009.4
04 11:52 SW 13 G 30 10.00 Fair CLR 66.9 30.9 26% 29.83 1010.2
04 10:52 SW 10 G 22 10.00 Fair CLR 64.9 34 32% 29.85 1010.7
04 09:52 SW 8 G 20 10.00 Fair CLR 64 33.1 32% 29.86 1011.2
04 08:52 W 10 G 20 10.00 Fair CLR 57.9 33.1 39% 29.88 1011.9
04 07:52 SW 10 10.00 Fair CLR 54 33.1 54 43 45% 29.88 1011.9
04 06:52 SW 6 10.00 A Few Clouds FEW100 48 33.1 56% 46 29.88 1011.9
04 05:52 SW 5 10.00 Partly Cloudy SCT095 45 33.1 63% 43 29.87 1011.5
04 04:52 Calm 10.00 Overcast FEW080 OVC110 46.9 33.1 59% 29.87 1011.3
04 03:52 SW 5 10.00 Overcast BKN075 OVC100 46.9 28 48% 45 29.86 1011.3
04 02:52 SW 5 10.00 Overcast FEW070 OVC090 46 26.1 46% 44 29.86 1011.3
04 01:52 SW 5 10.00 Mostly Cloudy BKN100 46 27 51.1 33.1 47% 44 29.86 1011.0
04 00:52 SW 5 10.00 Mostly Cloudy BKN085 44.1 28 53% 42 29.86 1011.1
03 23:52 W 5 10.00 Fair CLR 35.1 27 72% 32 29.85 1010.9
03 22:52 Calm 10.00 Fair CLR 34 30 85% 29.84 1010.6
03 21:52 Calm 10.00 Fair CLR 36 27 70% 29.84 1010.5
03 20:52 Calm 10.00 Fair CLR 42.1 26.1 53% 29.82 1009.8
03 19:52 NW 5 10.00 Partly Cloudy SCT080 51.1 21.9 55.9 51.1 32% 29.8 1009.1
03 18:52 NW 7 G 22 10.00 Overcast OVC080 52 23 32% 29.77 1008.2
03 17:52 W 9 10.00 Overcast OVC075 53.1 23 31% 29.75 1007.3
03 16:52 NW 9 G 29 10.00 Overcast BKN070 OVC085 54 24.1 31% 29.72 1006.3
03 15:52 NW 8 G 20 10.00 Overcast SCT065 OVC080 54 27 35% 29.71 1006.0
03 14:52 Calm 10.00 Overcast BKN070 OVC085 53.1 28 38% 29.71 1006.1
03 13:52 NW 10 G 20 10.00 Overcast FEW065 OVC090 53.1 28.9 53.1 45 40% 29.71 1006.0 0.01
03 12:52 NW 14 G 28 10.00 Overcast FEW034 BKN045 OVC080 50 30.9 48% 45 29.72 1006.3
03 11:52 Vrbl 7 9.00 Light Rain OVC034 45 37.9 77% 42 29.71 1006.2
03 10:52 NW 9 G 17 10.00 Light Rain BKN027 BKN034 OVC041 46.9 37.9 71% 43 29.71 1006.0 0.01 0.01
03 09:52 NW 12 G 22 10.00 Overcast BKN033 OVC045 50 35.1 57% 46 29.69 1005.4
03 08:52 NW 7 G 18 10.00 A Few Clouds FEW029 50 35.1 57% 48 29.7 1005.8
03 07:52 NW 9 G 22 10.00 Fair CLR 46 35.1 48.9 44.1 66% 42 29.72 1006.4
03 06:52 NW 6 10.00 Partly Cloudy FEW090 SCT110 45 35.1 68% 42 29.73 1006.7
03 05:52 Vrbl 7 10.00 Mostly Cloudy BKN110 45 36 71% 42 29.73 1006.6
03 04:52 NW 5 10.00 Overcast OVC075 46 36 68% 44 29.74 1006.9
03 03:52 NW 7 10.00 Overcast BKN060 OVC095 46.9 36 66% 44 29.75 1007.6
03 02:52 NW 8 10.00 Overcast BKN060 OVC080 48 36 63% 45 29.77 1008.1
03 01:52 NW 5 10.00 Overcast OVC046 48.9 42.1 50 48 77% 48 29.79 1008.8
03 00:52 Calm 10.00 Overcast BKN009 OVC017 48.9 46.9 93% 29.81 1009.4
Date Time (edt) Wind (mph) Vis. (mi.) Weather Sky Cond. Air Dwpt Max. Min. Relative Humidity Wind Chill (°F) Heat Index (°F) altimeter (in) sea level (mb) 1 hr 3 hr 6 hr
6 hour
Temperature (ºF) Pressure Precipitation (in)